This is the latest recevied weather packets stored in our database for station/object W0DP-11. If no packets are shown the sender has not sent any weather packets the latest 10 day(s).
| Time | Temp. | Humidity | Pressure | Rain* | Wind** | Luminosity | Snow |
|---|---|---|---|---|---|---|---|
| 1777101637 | -1.11° C | 93% | 1014.1 hPa | 0 mm | - | - | - |
| 1777098617 | -1.11° C | 93% | 1013.6 hPa | 0 mm | - | - | - |
| 1777096237 | -1.11° C | 92% | 1012.8 hPa | 0 mm | - | - | - |
| 1777093837 | -1.11° C | 92% | 1012.4 hPa | 0 mm | - | - | - |
| 1777092617 | 0° C | 90% | 1012.4 hPa | 0 mm | - | - | - |
| 1777087837 | 1.67° C | 85% | 1012.2 hPa | 0 mm | - | - | - |
| 1777083017 | 5° C | 74% | 1011.6 hPa | 0 mm | - | - | - |
| 1777081817 | 5° C | 74% | 1011.4 hPa | 0 mm | - | - | - |
| 1777076417 | 8.33° C | 58% | 1011.3 hPa | 0 mm | - | - | - |
| 1777074017 | 8.33° C | 55% | 1011.2 hPa | 0 mm | - | - | - |
| 1777071017 | 10° C | 52% | 1010.8 hPa | 0 mm | - | - | - |
| 1777070417 | 10° C | 52% | 1010.8 hPa | 0 mm | - | - | - |
| 1777068617 | 10° C | 58% | 1010.7 hPa | 0 mm | - | - | - |
| 1777065617 | 10° C | 59% | 1010.4 hPa | 0 mm | - | - | - |
| 1777060236 | 8.33° C | 68% | 1009.7 hPa | 0 mm | - | - | - |
| 1777057236 | 6.67° C | 72% | 1010 hPa | 0 mm | - | - | - |
| 1777055416 | 6.67° C | 72% | 1009.7 hPa | 0 mm | - | - | - |
| 1777052416 | 5° C | 75% | 1009.6 hPa | 0 mm | - | - | - |
| 1777050616 | 5° C | 81% | 1009.5 hPa | 0 mm | - | - | - |
| 1777048216 | 2.78° C | 84% | 1009 hPa | 0 mm | - | - | - |
| 1777040436 | 2.22° C | 91% | 1007.3 hPa | 0 mm | - | - | - |
| 1777038616 | 2.22° C | 92% | 1007.1 hPa | 0 mm | - | - | - |
| 1777038017 | 2.22° C | 92% | 1007.1 hPa | 0.25 mm | - | - | - |
| 1777036817 | 2.22° C | 93% | 1006.8 hPa | 0.25 mm | - | - | - |
| 1777031437 | 2.22° C | 94% | 1006 hPa | 0.51 mm | - | - | - |
* Rain latest hour (hover to see other rain measurements)
** Current wind speed in m/s (hover to see current wind gust speed)